Terminal Aerodrome Forecast
Issued by NWS Charleston, WV

Current Version | Previous Version | Text Only | Print | Product List | Glossary Off
Versions: 1 2 3 4 5 6 7 8 9 10 11 12 13 14 15 16 17 18 19 20 21 22 23

000
FTUS41 KRLX 300531
TAFPKB
TAF
KPKB 300531Z 3006/0106 00000KT 6SM BR BKN090
     FM300900 00000KT 5SM BR BKN030
     FM301300 22004KT P6SM BKN030
     FM301500 22007KT P6SM SCT050
     FM301700 23007KT P6SM VCTS BKN040CB
     FM010200 30008KT P6SM BKN045
      AMD NOT SKED=

USA.gov is the U.S. government's official web portal to all federal, state and local government web resources and services.